createdAt,value
2023-03-04T00:03:15.802Z,21.50
2023-03-04T00:08:18.745Z,18.00
2023-03-04T00:13:22.296Z,22.80
2023-03-04T00:18:25.136Z,16.60
2023-03-04T00:23:27.967Z,13.80
2023-03-04T00:28:30.734Z,15.30
2023-03-04T00:33:33.987Z,21.60
2023-03-04T00:38:37.038Z,15.50
2023-03-04T00:43:39.873Z,16.40
2023-03-04T00:48:42.592Z,20.10
2023-03-04T00:53:45.473Z,15.60
2023-03-04T00:58:48.247Z,20.70
2023-03-04T01:03:51.048Z,20.00
2023-03-04T01:08:55.483Z,16.90
2023-03-04T01:13:58.246Z,13.80
2023-03-04T01:19:01.019Z,18.20
2023-03-04T01:24:04.211Z,19.20
2023-03-04T01:29:07.138Z,19.70
2023-03-04T01:34:10.148Z,16.50
2023-03-04T01:39:12.930Z,17.70
2023-03-04T01:44:15.945Z,12.70
2023-03-04T01:49:19.544Z,7.90
2023-03-04T01:54:23.512Z,20.00
2023-03-04T01:59:30.849Z,15.20
2023-03-04T02:04:34.716Z,18.50
2023-03-04T02:09:37.571Z,17.70
2023-03-04T02:14:40.557Z,15.00
2023-03-04T02:19:53.956Z,14.20
2023-03-04T02:25:21.931Z,16.10
2023-03-04T02:30:25.723Z,11.50
2023-03-04T02:35:28.657Z,11.20
2023-03-04T02:40:35.096Z,7.50
2023-03-04T02:45:37.834Z,12.70
2023-03-04T02:50:44.971Z,16.90
2023-03-04T02:55:49.011Z,10.60
2023-03-04T03:00:52.132Z,10.30
2023-03-04T03:05:54.939Z,9.70
2023-03-04T03:10:57.765Z,9.10
2023-03-04T03:16:00.612Z,11.50
2023-03-04T03:21:03.589Z,13.20
2023-03-04T03:26:06.595Z,19.40
2023-03-04T03:31:09.579Z,10.30
2023-03-04T03:36:12.533Z,14.00
2023-03-04T03:41:15.304Z,14.30
2023-03-04T03:46:18.091Z,11.20
2023-03-04T03:51:20.904Z,9.80
2023-03-04T03:56:23.663Z,13.90
2023-03-04T04:01:26.582Z,14.30
2023-03-04T04:06:29.516Z,13.40
2023-03-04T04:11:32.397Z,9.80
2023-03-04T04:16:35.193Z,14.80
2023-03-04T04:21:38.036Z,13.80
2023-03-04T04:26:41.766Z,12.60
2023-03-04T04:31:44.527Z,15.20
2023-03-04T04:36:47.749Z,13.80
2023-03-04T04:41:50.858Z,12.40
2023-03-04T04:46:53.642Z,10.40
2023-03-04T04:51:56.406Z,14.90
2023-03-04T04:56:59.186Z,13.50
2023-03-04T05:02:02.077Z,17.00
2023-03-04T05:07:04.928Z,10.70
2023-03-04T05:12:07.761Z,9.10
2023-03-04T05:17:10.590Z,12.40
2023-03-04T05:22:13.327Z,11.40
2023-03-04T05:27:16.248Z,11.80
2023-03-04T05:32:19.069Z,7.70
2023-03-04T05:37:21.831Z,11.60
2023-03-04T05:42:24.653Z,9.40
2023-03-04T05:47:27.518Z,14.40
2023-03-04T05:52:30.339Z,7.80
2023-03-04T05:57:33.083Z,14.30
2023-03-04T06:02:37.128Z,16.70
2023-03-04T06:07:40.121Z,11.40
2023-03-04T06:12:43.172Z,11.20
2023-03-04T06:17:45.950Z,14.70
2023-03-04T06:22:48.723Z,17.20
2023-03-04T06:27:52.595Z,14.20
2023-03-04T06:32:56.405Z,8.30
2023-03-04T06:37:59.216Z,18.50
2023-03-04T06:43:01.991Z,8.80
2023-03-04T06:48:05.017Z,12.50
2023-03-04T06:53:07.894Z,15.70
2023-03-04T06:58:10.725Z,13.30
2023-03-04T07:03:13.615Z,14.10
2023-03-04T07:08:16.593Z,11.70
2023-03-04T07:13:19.374Z,11.80
2023-03-04T07:18:22.215Z,16.90
2023-03-04T07:23:25.188Z,9.00
2023-03-04T07:28:28.009Z,13.10
2023-03-04T07:33:30.836Z,12.90
2023-03-04T07:38:33.717Z,10.90
2023-03-04T07:43:36.697Z,8.80
2023-03-04T07:48:39.861Z,11.80
2023-03-04T07:53:44.720Z,14.00
2023-03-04T07:58:47.594Z,7.20
2023-03-04T08:03:50.418Z,8.40
2023-03-04T08:09:19.323Z,6.80
2023-03-04T08:14:22.085Z,8.60
2023-03-04T08:19:26.091Z,10.90
2023-03-04T08:24:29.090Z,8.80
2023-03-04T08:29:31.989Z,7.30
2023-03-04T08:34:34.801Z,10.80
2023-03-04T08:39:37.823Z,4.70
2023-03-04T08:44:40.597Z,8.40
2023-03-04T08:49:43.395Z,8.20
2023-03-04T08:54:46.204Z,5.10
2023-03-04T08:59:49.004Z,9.30
2023-03-04T09:04:51.810Z,4.10
2023-03-04T09:09:54.753Z,8.00
2023-03-04T09:15:10.342Z,5.80
2023-03-04T09:20:14.344Z,4.30
2023-03-04T09:25:17.161Z,11.60
2023-03-04T09:30:20.162Z,8.70
2023-03-04T09:35:23.195Z,12.00
2023-03-04T09:40:42.158Z,3.40
2023-03-04T09:45:51.902Z,12.10
2023-03-04T09:51:27.190Z,7.20
2023-03-04T09:56:30.383Z,6.90
2023-03-04T10:01:39.039Z,7.30
2023-03-04T10:06:42.693Z,4.10
2023-03-04T10:11:48.917Z,9.10
2023-03-04T10:22:00.556Z,6.00
2023-03-04T10:27:07.892Z,7.30
2023-03-04T10:32:16.486Z,4.80
2023-03-04T10:37:19.467Z,3.40
2023-03-04T10:42:26.711Z,3.00
2023-03-04T10:47:32.780Z,4.50
2023-03-04T10:52:40.799Z,2.30
2023-03-04T10:57:48.605Z,4.40
2023-03-04T11:02:51.416Z,2.10
2023-03-04T11:07:58.552Z,3.80
2023-03-04T11:13:12.754Z,2.30
2023-03-04T11:18:17.178Z,2.40
2023-03-04T11:23:33.919Z,2.10
2023-03-04T11:28:48.852Z,2.40
2023-03-04T11:33:59.378Z,2.60
2023-03-04T11:39:08.828Z,5.60
2023-03-04T11:44:13.159Z,10.40
2023-03-04T11:49:48.905Z,6.60
2023-03-04T11:55:03.385Z,4.30
2023-03-04T12:00:24.409Z,1.80
2023-03-04T12:06:07.131Z,1.90
2023-03-04T12:11:23.143Z,11.40
2023-03-04T12:16:47.457Z,4.50
2023-03-04T12:22:27.804Z,8.10
2023-03-04T12:27:45.592Z,4.70
2023-03-04T12:32:54.211Z,4.70
2023-03-04T12:38:17.105Z,4.70
2023-03-04T12:43:41.590Z,3.80
2023-03-04T12:48:52.694Z,7.70
2023-03-04T12:54:20.955Z,3.50
2023-03-04T12:59:26.917Z,4.30
2023-03-04T13:04:46.743Z,3.90
2023-03-04T13:10:07.571Z,2.30
2023-03-04T13:15:10.268Z,3.90
2023-03-04T13:20:25.121Z,2.00
2023-03-04T13:25:46.230Z,5.50
2023-03-04T13:30:52.145Z,3.30
2023-03-04T13:36:05.293Z,6.60
2023-03-04T13:41:20.016Z,8.60
2023-03-04T13:46:24.079Z,5.10
2023-03-04T13:51:30.530Z,6.10
2023-03-04T13:56:42.924Z,10.50
2023-03-04T14:02:02.609Z,0.80
2023-03-04T14:07:20.729Z,3.10
2023-03-04T14:12:25.251Z,2.80
2023-03-04T14:17:36.609Z,2.90
2023-03-04T14:22:40.488Z,2.70
2023-03-04T14:27:44.299Z,3.30
2023-03-04T14:32:48.720Z,7.40
2023-03-04T14:38:18.645Z,4.30
2023-03-04T14:43:23.262Z,1.70
2023-03-04T14:48:29.856Z,1.80
2023-03-04T14:53:33.529Z,5.80
2023-03-04T14:58:52.240Z,3.70
2023-03-04T15:04:08.041Z,7.40
2023-03-04T15:09:25.479Z,4.50
2023-03-04T15:14:46.895Z,4.20
2023-03-04T15:20:07.457Z,4.70
2023-03-04T15:25:15.500Z,2.20
2023-03-04T15:30:30.464Z,3.70
2023-03-04T15:35:33.623Z,2.90
2023-03-04T15:40:39.280Z,1.70
2023-03-04T15:45:42.294Z,5.70
2023-03-04T15:51:00.919Z,3.10
2023-03-04T15:56:12.293Z,6.60
2023-03-04T16:01:17.044Z,7.10
2023-03-04T16:06:24.542Z,4.30
2023-03-04T16:11:29.940Z,5.80
2023-03-04T16:16:32.769Z,5.10
2023-03-04T16:21:35.782Z,5.10
2023-03-04T16:26:38.617Z,7.90
2023-03-04T16:31:41.511Z,0.90
2023-03-04T16:36:44.402Z,2.20
2023-03-04T16:41:47.231Z,2.90
2023-03-04T16:46:50.061Z,5.50
2023-03-04T16:51:52.914Z,3.50
2023-03-04T16:56:56.190Z,6.10
2023-03-04T17:01:59.054Z,5.30
2023-03-04T17:07:02.074Z,2.50
2023-03-04T17:12:06.916Z,4.50
2023-03-04T17:17:09.769Z,2.90
2023-03-04T17:22:12.568Z,5.50
2023-03-04T17:27:15.718Z,5.80
2023-03-04T17:32:19.173Z,2.30
2023-03-04T17:37:21.958Z,4.00
2023-03-04T17:42:24.712Z,3.90
2023-03-04T17:47:27.475Z,6.10
2023-03-04T17:52:30.220Z,4.80
2023-03-04T17:57:36.593Z,7.20
2023-03-04T18:07:42.550Z,9.50
2023-03-04T18:12:47.384Z,7.40
2023-03-04T18:17:50.373Z,7.30
2023-03-04T18:22:53.183Z,8.40
2023-03-04T18:27:55.952Z,5.10
2023-03-04T18:33:02.807Z,4.70
2023-03-04T18:38:05.693Z,4.90
2023-03-04T18:43:08.884Z,5.90
2023-03-04T18:48:11.810Z,5.40
2023-03-04T18:53:14.732Z,7.20
2023-03-04T18:58:17.582Z,5.30
2023-03-04T19:03:20.831Z,3.50
2023-03-04T19:08:23.617Z,5.20
2023-03-04T19:13:27.541Z,6.60
2023-03-04T19:18:31.133Z,6.50
2023-03-04T19:23:35.558Z,4.70
2023-03-04T19:28:38.342Z,7.40
2023-03-04T19:33:41.651Z,6.50
2023-03-04T19:38:44.442Z,7.20
2023-03-04T19:43:47.452Z,5.50
2023-03-04T19:48:50.428Z,10.40
2023-03-04T19:53:54.716Z,10.10
2023-03-04T19:58:58.360Z,10.70
2023-03-04T20:04:13.276Z,8.50
2023-03-04T20:09:19.919Z,6.40
2023-03-04T20:14:22.742Z,7.10
2023-03-04T20:19:26.093Z,7.10
2023-03-04T20:24:29.325Z,5.80
2023-03-04T20:29:32.788Z,5.70
2023-03-04T20:34:36.943Z,6.40
2023-03-04T20:39:39.814Z,11.10
2023-03-04T20:44:42.745Z,3.50
2023-03-04T20:49:45.551Z,7.00
2023-03-04T20:54:48.364Z,5.80
2023-03-04T20:59:51.179Z,3.60
2023-03-04T21:04:55.639Z,5.40
2023-03-04T21:09:58.397Z,5.50
2023-03-04T21:15:01.162Z,5.00
2023-03-04T21:20:04.522Z,4.20
2023-03-04T21:25:07.855Z,4.90
2023-03-04T21:30:11.504Z,7.50
2023-03-04T21:35:15.293Z,7.80
2023-03-04T21:40:18.325Z,5.80
2023-03-04T21:45:21.165Z,4.20
2023-03-04T21:50:23.986Z,4.60
2023-03-04T21:55:26.821Z,4.20
2023-03-04T22:00:30.287Z,7.80
2023-03-04T22:05:33.102Z,5.80
2023-03-04T22:10:38.403Z,6.70
2023-03-04T22:15:43.399Z,5.40
2023-03-04T22:20:46.264Z,3.10
2023-03-04T22:25:49.052Z,4.90
2023-03-04T22:30:52.026Z,4.80
2023-03-04T22:35:55.773Z,5.80
2023-03-04T22:40:58.850Z,8.40
2023-03-04T22:46:02.022Z,8.70
2023-03-04T22:51:06.482Z,12.00
2023-03-04T22:56:11.466Z,10.40
2023-03-04T23:01:16.027Z,7.80
2023-03-04T23:06:22.969Z,11.90
2023-03-04T23:11:29.004Z,7.90
2023-03-04T23:16:33.420Z,8.10
2023-03-04T23:21:37.637Z,7.50
2023-03-04T23:26:42.513Z,14.20
2023-03-04T23:31:45.428Z,12.10
2023-03-04T23:36:48.600Z,9.70
2023-03-04T23:41:51.361Z,8.10
2023-03-04T23:46:54.246Z,9.10
2023-03-04T23:51:57.264Z,5.70
2023-03-04T23:57:01.024Z,7.40
